IkaScore Players IkaScore Alliances






Support IkaScore

Please donate to
me@ikascore.com

using Skrill
Latvia Epsilon
Ikariam players: 50
AverageTotal
Kopējais punktu skaits: 23745961 1187298031
Celtnieki: 19670755 983537771
Celtniecības līmeņi: 2799 4592473
Zinātnieki: 767293 1259127013
Pētniecības līmenis: 284 466504
Ģenerāļi: 11695 19192184
Zelts: 35951493 1797574626
Uzbrukuma punkti: 7449 12224566
Aizsardzības punkti: 9482 15560495
Tirdzniecības statistika: 4635 7606773
Resursi: 14783292 739164599
ziedot: 389894 639816718
Score vulnerability: 187330 307408125
Gold vulnerability: 5203 8537557
Population: 16935 27789821
Donations to score: 335452 550477459

Digg! Delicious! IkaScore homepage
Alliances - Kopējais punktu skaits
  per page  
Rank Alliance Score Type Average Score Updated
1 LAT Kopējais punktu skaits 9205732 1058659220 21/11 19:16
2 EŽI Kopējais punktu skaits 45414551 635803717 21/11 19:16
3 NEZIN Kopējais punktu skaits 7550629 558746517 21/11 19:16
4 KidLV Kopējais punktu skaits 11044705 552235266 21/11 19:16
5 NRWL Kopējais punktu skaits 9202088 432498130 21/11 19:16
6 P-Z Kopējais punktu skaits 8964178 403388002 21/11 19:16
7 ZOOM Kopējais punktu skaits 8930009 383990403 21/11 19:16
8 K15R Kopējais punktu skaits 15938397 207199160 21/11 19:16
9 DESA Kopējais punktu skaits 6674601 166865026 21/11 19:16
10 SOG Kopējais punktu skaits 11089394 166340907 21/11 19:16
11 TRVIP Kopējais punktu skaits 6075514 164038872 21/11 19:16
12 BNK Kopējais punktu skaits 1673978 157353927 21/11 19:16
13 -FX- Kopējais punktu skaits 8728173 130922593 21/11 19:16
14 LVS- Kopējais punktu skaits 11708694 128795636 21/11 19:16
15 PO- Kopējais punktu skaits 7446052 96798672 21/11 19:16
16 SPARS Kopējais punktu skaits 11145402 89163217 21/11 19:16
17 _LK_ Kopējais punktu skaits 6831304 88806954 21/11 19:16
18 -AHA- Kopējais punktu skaits 5075140 86277385 21/11 19:16
19 KF P Kopējais punktu skaits 38296854 76593707 21/11 19:16
20 KuP Kopējais punktu skaits 4471434 67071510 21/11 19:16
21 -F-2 Kopējais punktu skaits 9130976 63916830 21/11 19:16
22 RedS Kopējais punktu skaits 12693292 63466458 21/11 19:16
23 new Kopējais punktu skaits 4955591 54511497 21/11 19:16
24 L V K Kopējais punktu skaits 2920920 43813793 21/11 19:16
25 B_S Kopējais punktu skaits 4603248 36825982 21/11 19:16
26 Z P Kopējais punktu skaits 17774692 35549384 21/11 19:16
27 LVO Kopējais punktu skaits 6933833 34669167 21/11 19:16
28 Kat Kopējais punktu skaits 14756347 29512693 21/11 19:16
29 -LV- Kopējais punktu skaits 4523603 27141615 21/11 19:16
30 DRG Kopējais punktu skaits 1547939 24767021 21/11 19:16
31 123e Kopējais punktu skaits 21404963 21404963 21/11 19:16
32 TAG Kopējais punktu skaits 530811 19109196 21/11 19:16
33 D-H Kopējais punktu skaits 17559731 17559731 21/11 19:16
34 Andre Kopējais punktu skaits 16452931 16452931 21/11 19:16
35 FIRE Kopējais punktu skaits 5214303 15642909 21/11 19:16
36 LVL Kopējais punktu skaits 2695944 13479721 21/11 19:16
37 BrivL Kopējais punktu skaits 2114281 12685686 21/11 19:16
38 LLS Kopējais punktu skaits 1228754 11058782 21/11 19:16
39 B-I-A Kopējais punktu skaits 1686824 10120942 21/11 19:16
40 TR-V Kopējais punktu skaits 4948434 9896868 21/11 19:16
41 -KC- Kopējais punktu skaits 9167127 9167127 21/11 19:16
42 _MPK_ Kopējais punktu skaits 8928187 8928187 21/11 19:16
43 Ku-kū Kopējais punktu skaits 8856525 8856525 21/11 19:16
44 -re- Kopējais punktu skaits 8807122 8807122 21/11 19:16
45 V-V Kopējais punktu skaits 8625373 8625373 21/11 19:16
46 AGs Kopējais punktu skaits 4163005 8326009 21/11 19:16
47 ENDE Kopējais punktu skaits 110102 6055633 21/11 19:16
48 -NV- Kopējais punktu skaits 5571252 5571252 21/11 19:16
49 oWo Kopējais punktu skaits 652695 5221559 21/11 19:16
50 P-P Kopējais punktu skaits 285123 5132211 21/11 19:16
51 legia Kopējais punktu skaits 4946067 4946067 21/11 19:16
52 B_N Kopējais punktu skaits 589053 4712421 21/11 19:16
53 ILG Kopējais punktu skaits 4668821 4668821 21/11 19:16
54 Bot Kopējais punktu skaits 548479 4387835 21/11 19:16
55 BEK Kopējais punktu skaits 3528061 3528061 21/11 19:16
56 DRAG Kopējais punktu skaits 1154869 3464606 21/11 19:16
57 S-M Kopējais punktu skaits 309568 3095684 21/11 19:16
58 ZAZ Kopējais punktu skaits 2577620 2577620 21/11 19:16
59 Saw Kopējais punktu skaits 2397591 2397591 21/11 19:16
60 -PM- Kopējais punktu skaits 1062990 2125979 21/11 19:16
61 321 Kopējais punktu skaits 2024809 2024809 21/11 19:16
62 ROKO Kopējais punktu skaits 2004679 2004679 21/11 19:16
63 -CR- Kopējais punktu skaits 799909 1599818 21/11 19:16
64 KKK Kopējais punktu skaits 165382 1157675 21/11 19:16
65 TRp Kopējais punktu skaits 93153 838379 21/11 19:16
66 MCJS Kopējais punktu skaits 383362 766724 21/11 19:16
67 PiR Kopējais punktu skaits 753190 753190 21/11 19:16
68 KVL Kopējais punktu skaits 705738 705738 21/11 19:16
69 ODA Kopējais punktu skaits 694264 694264 21/11 19:16
70 TSD Kopējais punktu skaits 170478 511435 21/11 19:16
71 XII Kopējais punktu skaits 423964 423964 21/11 19:16
72 EGY Kopējais punktu skaits 353520 353520 21/11 19:16
73 Cip Kopējais punktu skaits 301720 301720 21/11 19:16
74 LVD Kopējais punktu skaits 237296 237296 21/11 19:16
75 T-K Kopējais punktu skaits 95553 191106 21/11 19:16
76 D-M Kopējais punktu skaits 191087 191087 21/11 19:16
77 Troja Kopējais punktu skaits 71903 143805 21/11 19:16
78 uwu Kopējais punktu skaits 103117 103117 21/11 19:16
79 -pps- Kopējais punktu skaits 20471 102355 21/11 19:16
80 r93vs Kopējais punktu skaits 24880 99521 21/11 19:16
81 SWS Kopējais punktu skaits 25021 25021 21/11 19:16
82 KPI Kopējais punktu skaits 7163 7163 21/11 19:16
83 BMW Kopējais punktu skaits 6132 6132 21/11 19:16
  per page  

Copyright © 2010 IkaScore.com All Rights Reserved | Disclaimer